Time;durP1;ratioP1;P1;durP2;ratioP2;P2;SDS_P1;SDS_P2;PMS_P1;PMS_P2;Temp;Humidity;BMP_temperature;BMP_pressure;BME280_temperature;BME280_humidity;BME280_pressure;Samples;Min_cycle;Max_cycle;Signal;HPM_P1;HPM_P2
2023/01/18 00:01:45;;;;;;;6.68;5.03;;;8.30;64.80;;;;;;5075590;28;20534;-69
2023/01/18 00:04:12;;;;;;;9.53;5.17;;;8.20;64.70;;;;;;5088759;28;20220;-69
2023/01/18 00:06:40;;;;;;;6.57;4.50;;;8.10;64.60;;;;;;5074925;28;20486;-69
2023/01/18 00:09:07;;;;;;;7.07;4.63;;;8.20;64.70;;;;;;5074678;28;20447;-69
2023/01/18 00:11:34;;;;;;;6.05;4.65;;;8.20;64.70;;;;;;5075519;28;20555;-70
2023/01/18 00:14:02;;;;;;;6.80;4.73;;;8.20;64.70;;;;;;5094616;28;20197;-69
2023/01/18 00:16:30;;;;;;;5.23;4.50;;;8.20;64.70;;;;;;5087691;28;20455;-68
2023/01/18 00:18:58;;;;;;;6.57;4.77;;;8.20;64.70;;;;;;5074319;28;20456;-68
2023/01/18 00:21:27;;;;;;;6.90;4.83;;;8.20;64.80;;;;;;5083879;28;20529;-68
2023/01/18 00:23:55;;;;;;;6.60;4.97;;;8.20;64.80;;;;;;5094279;28;20490;-69
2023/01/18 00:26:22;;;;;;;7.53;4.73;;;8.20;64.80;;;;;;5094854;28;20935;-69
2023/01/18 00:28:49;;;;;;;8.07;4.70;;;8.20;64.70;;;;;;5082956;28;20538;-69
2023/01/18 00:31:19;;;;;;;7.90;4.53;;;8.20;64.70;;;;;;5085993;28;20279;-69
2023/01/18 00:33:48;;;;;;;7.60;4.77;;;8.20;64.90;;;;;;5115288;28;20827;-69
2023/01/18 00:36:15;;;;;;;8.07;5.07;;;8.20;64.90;;;;;;5114977;28;20541;-69
2023/01/18 00:38:42;;;;;;;6.17;5.20;;;8.10;64.80;;;;;;5115254;28;20450;-69
2023/01/18 00:41:10;;;;;;;5.93;4.27;;;8.10;64.90;;;;;;5093368;28;20548;-69
2023/01/18 00:43:38;;;;;;;7.90;5.47;;;8.10;64.90;;;;;;5092874;28;20532;-69
2023/01/18 00:46:06;;;;;;;7.50;5.30;;;8.10;65.70;;;;;;5093815;28;20533;-69
2023/01/18 00:48:35;;;;;;;6.63;4.85;;;8.20;65.10;;;;;;5094632;28;20454;-69
2023/01/18 00:51:02;;;;;;;6.30;4.90;;;8.10;65.10;;;;;;5094400;28;20261;-69
2023/01/18 00:53:30;;;;;;;6.90;4.57;;;8.10;65.20;;;;;;5093655;28;20545;-69
2023/01/18 00:55:57;;;;;;;8.77;4.67;;;8.10;65.40;;;;;;5093788;28;20484;-69
2023/01/18 00:58:24;;;;;;;7.00;4.97;;;8.10;65.30;;;;;;5094616;28;20515;-69
2023/01/18 01:00:52;;;;;;;8.27;5.10;;;8.10;65.30;;;;;;5094477;28;20903;-69
2023/01/18 01:03:19;;;;;;;5.75;4.82;;;8.10;65.30;;;;;;5092939;28;20447;-69
2023/01/18 01:08:33;;;;;;;8.57;5.07;;;8.10;65.60;;;;;;5074101;28;20447;-68
2023/01/18 01:11:09;;;;;;;5.60;4.60;;;8.10;65.60;;;;;;5073699;28;20858;-68
2023/01/18 01:27:21;;;;;;;6.17;4.90;;;8.00;65.40;;;;;;5093111;28;20950;-69
2023/01/18 01:29:48;;;;;;;6.73;4.43;;;8.00;65.40;;;;;;5081274;28;20481;-69
2023/01/18 01:32:15;;;;;;;5.40;3.90;;;8.00;65.50;;;;;;5094564;28;20454;-69
2023/01/18 01:34:42;;;;;;;7.00;4.60;;;8.00;65.40;;;;;;5093858;28;20557;-69
2023/01/18 01:37:10;;;;;;;6.93;4.40;;;7.90;65.30;;;;;;5091595;28;20258;-69
2023/01/18 01:39:37;;;;;;;6.57;4.97;;;8.00;65.50;;;;;;5093610;28;20832;-69
2023/01/18 01:42:10;;;;;;;6.57;4.53;;;8.00;65.50;;;;;;5080380;28;20456;-69
2023/01/18 01:44:46;;;;;;;7.37;4.73;;;8.10;65.80;;;;;;5072623;28;20498;-69
2023/01/18 01:47:20;;;;;;;6.17;4.80;;;8.00;65.70;;;;;;5073018;28;20439;-69
2023/01/18 01:49:49;;;;;;;7.43;4.57;;;7.90;65.60;;;;;;5054403;28;20439;-69
2023/01/18 01:52:23;;;;;;;5.67;4.37;;;8.00;65.60;;;;;;5072225;28;20505;-69
2023/01/18 01:54:56;;;;;;;6.47;4.40;;;8.00;65.70;;;;;;5092184;28;20522;-69
2023/01/18 01:57:27;;;;;;;8.57;4.60;;;8.00;65.70;;;;;;5092280;28;20453;-69
2023/01/18 01:59:57;;;;;;;7.43;4.87;;;8.00;65.60;;;;;;5093692;28;20864;-69
2023/01/18 02:02:24;;;;;;;7.20;4.93;;;8.00;65.70;;;;;;5093472;28;20435;-69
2023/01/18 02:04:53;;;;;;;7.10;5.00;;;8.00;65.80;;;;;;5088482;28;20584;-69
2023/01/18 02:07:25;;;;;;;5.57;4.73;;;8.00;65.70;;;;;;5072339;28;20455;-69
2023/01/18 02:09:52;;;;;;;6.65;4.93;;;8.00;65.80;;;;;;5072579;28;20436;-69
2023/01/18 02:12:20;;;;;;;5.97;4.53;;;8.00;66.00;;;;;;5073000;28;20263;-68
2023/01/18 02:14:47;;;;;;;6.78;4.75;;;7.90;66.60;;;;;;5072886;28;20546;-68
2023/01/18 02:17:29;;;;;;;7.30;4.90;;;8.00;66.10;;;;;;5079451;28;20307;-70
2023/01/18 02:20:28;;;;;;;5.32;4.45;;;8.00;66.30;;;;;;5078817;28;20471;-70
2023/01/18 02:23:31;;;;;;;5.87;4.50;;;7.90;66.30;;;;;;5086770;28;20200;-68
2023/01/18 02:26:36;;;;;;;6.90;4.60;;;7.90;66.40;;;;;;5080922;28;20503;-69
2023/01/18 02:29:12;;;;;;;5.80;4.10;;;7.90;66.40;;;;;;5039325;28;20220;-69
2023/01/18 02:31:47;;;;;;;4.90;4.30;;;8.00;66.50;;;;;;5102061;28;20460;-69
2023/01/18 02:34:21;;;;;;;5.22;4.13;;;7.90;66.40;;;;;;5112330;28;20471;-69
2023/01/18 02:37:00;;;;;;;7.00;4.57;;;8.00;66.30;;;;;;5093308;28;20234;-69
2023/01/18 02:39:37;;;;;;;8.63;4.57;;;8.00;66.30;;;;;;5092817;28;20498;-69
2023/01/18 02:47:45;;;;;;;6.57;4.70;;;7.90;66.10;;;;;;5082566;28;20216;-68
2023/01/18 02:50:22;;;;;;;8.57;5.73;;;7.90;66.20;;;;;;5071559;28;20535;-68
2023/01/18 02:52:50;;;;;;;7.80;5.50;;;7.90;66.40;;;;;;5072136;28;20431;-69
2023/01/18 02:55:26;;;;;;;8.57;4.77;;;7.90;66.40;;;;;;5071181;28;20447;-68
2023/01/18 02:57:59;;;;;;;8.90;5.27;;;7.90;66.40;;;;;;5071486;28;20447;-69
2023/01/18 03:00:29;;;;;;;6.63;5.27;;;7.90;66.40;;;;;;5088134;28;20466;-69
2023/01/18 03:02:58;;;;;;;6.67;5.40;;;7.90;66.40;;;;;;5092458;28;20442;-69
2023/01/18 03:05:26;;;;;;;6.23;5.13;;;7.90;66.30;;;;;;5091714;28;21054;-69
2023/01/18 03:07:57;;;;;;;6.40;5.40;;;7.90;66.40;;;;;;5091378;28;20934;-70
2023/01/18 03:10:30;;;;;;;7.63;5.13;;;7.90;66.40;;;;;;5076444;28;20900;-70
2023/01/18 03:13:00;;;;;;;6.43;4.97;;;7.80;66.30;;;;;;5072095;28;20824;-70
2023/01/18 03:15:36;;;;;;;9.17;5.03;;;7.80;66.20;;;;;;5072165;28;20432;-68
2023/01/18 03:18:10;;;;;;;7.07;5.17;;;7.80;66.40;;;;;;5071594;28;20530;-68
2023/01/18 03:20:41;;;;;;;7.27;5.17;;;7.80;66.50;;;;;;5072222;28;20561;-69
2023/01/18 03:26:03;;;;;;;6.13;4.80;;;7.80;67.60;;;;;;5071574;28;20481;-69
2023/01/18 03:34:17;;;;;;;7.87;4.93;;;7.80;67.20;;;;;;5083850;28;20466;-69
2023/01/18 03:36:47;;;;;;;6.43;4.93;;;7.80;67.20;;;;;;5071497;28;20446;-70
2023/01/18 03:39:22;;;;;;;8.57;5.07;;;7.80;67.10;;;;;;5071319;28;20460;-68
2023/01/18 03:41:53;;;;;;;7.57;5.30;;;7.80;67.10;;;;;;5078451;28;20442;-69
2023/01/18 03:44:26;;;;;;;7.30;5.15;;;7.80;67.00;;;;;;5054938;28;20481;-68
2023/01/18 03:46:56;;;;;;;7.90;5.43;;;7.80;67.00;;;;;;5091964;28;20197;-68
2023/01/18 03:49:23;;;;;;;8.63;6.03;;;7.90;67.00;;;;;;5091255;28;20535;-68
2023/01/18 03:52:04;;;;;;;8.07;5.60;;;7.80;66.80;;;;;;5091595;28;20456;-68
2023/01/18 03:54:38;;;;;;;9.57;5.80;;;7.80;66.80;;;;;;5043193;28;20458;-70
2023/01/18 03:57:10;;;;;;;9.43;6.70;;;7.80;66.80;;;;;;5070870;28;20500;-70
2023/01/18 03:59:39;;;;;;;8.68;6.00;;;7.80;66.60;;;;;;5071720;28;20224;-69
2023/01/18 04:02:09;;;;;;;7.75;6.60;;;7.80;66.60;;;;;;5086638;28;20247;-70
2023/01/18 04:04:36;;;;;;;8.50;6.40;;;7.80;66.50;;;;;;5091299;28;20299;-68
2023/01/18 04:07:04;;;;;;;7.17;5.73;;;7.80;66.30;;;;;;5083623;28;20863;-68
2023/01/18 04:09:31;;;;;;;9.30;6.57;;;7.70;66.20;;;;;;5094505;28;20485;-67
2023/01/18 04:11:58;;;;;;;9.95;7.18;;;7.70;66.10;;;;;;5080345;28;20285;-68
2023/01/18 04:14:25;;;;;;;9.30;6.37;;;7.70;66.20;;;;;;5074939;28;20284;-68
2023/01/18 04:16:52;;;;;;;9.20;6.27;;;7.70;66.20;;;;;;5075125;28;20947;-68
2023/01/18 04:19:20;;;;;;;8.05;6.57;;;7.70;66.10;;;;;;5074877;28;20536;-68
2023/01/18 04:21:47;;;;;;;8.67;6.63;;;7.70;66.10;;;;;;5074723;28;20244;-69
2023/01/18 04:24:16;;;;;;;8.53;6.80;;;7.70;66.10;;;;;;5092637;28;20486;-69
2023/01/18 04:26:43;;;;;;;6.90;6.20;;;7.70;66.20;;;;;;5095101;28;20506;-69
2023/01/18 04:29:11;;;;;;;9.50;6.53;;;7.70;66.10;;;;;;5094671;28;20539;-68
2023/01/18 04:31:38;;;;;;;8.52;6.20;;;7.60;66.60;;;;;;5103439;28;20552;-69
2023/01/18 04:34:05;;;;;;;8.80;6.87;;;7.70;66.50;;;;;;5091742;28;21028;-68
2023/01/18 04:36:33;;;;;;;8.13;6.37;;;7.60;66.50;;;;;;5094272;28;20508;-69
2023/01/18 04:39:00;;;;;;;9.77;6.90;;;7.70;66.50;;;;;;5077359;28;20529;-69
2023/01/18 04:41:28;;;;;;;9.57;7.13;;;7.60;66.40;;;;;;5094321;28;20537;-69
2023/01/18 04:43:55;;;;;;;8.03;6.67;;;7.60;66.60;;;;;;5093095;28;20504;-69
2023/01/18 04:46:22;;;;;;;10.77;7.70;;;7.70;66.50;;;;;;5074634;28;20475;-69
2023/01/18 04:48:51;;;;;;;9.90;6.67;;;7.60;66.30;;;;;;5075232;28;20455;-68
2023/01/18 04:51:19;;;;;;;9.43;6.85;;;7.70;66.60;;;;;;5073616;28;20509;-70
2023/01/18 04:53:47;;;;;;;11.00;7.43;;;7.70;66.60;;;;;;5075811;28;20267;-68
2023/01/18 04:56:15;;;;;;;9.85;7.15;;;7.70;66.50;;;;;;5078834;28;20224;-69
2023/01/18 04:58:42;;;;;;;8.60;6.47;;;7.60;66.60;;;;;;5092982;28;20621;-69
2023/01/18 05:01:11;;;;;;;9.13;7.25;;;7.60;66.40;;;;;;5085788;28;20459;-68
2023/01/18 05:03:38;;;;;;;8.10;7.30;;;7.60;66.40;;;;;;5074604;28;20205;-69
2023/01/18 05:06:08;;;;;;;10.45;7.68;;;7.60;66.50;;;;;;5074147;28;20574;-68
2023/01/18 05:08:39;;;;;;;11.20;7.05;;;7.60;66.80;;;;;;5081534;28;20196;-69
2023/01/18 05:11:10;;;;;;;9.25;6.97;;;7.50;66.70;;;;;;5094150;28;20250;-70
2023/01/18 05:13:37;;;;;;;10.10;7.18;;;7.60;67.00;;;;;;5091286;28;20205;-69
2023/01/18 05:16:06;;;;;;;9.50;7.07;;;7.50;67.00;;;;;;5087852;28;20613;-70
2023/01/18 05:18:33;;;;;;;10.82;7.10;;;7.60;67.10;;;;;;5079046;28;20794;-69
2023/01/18 05:21:00;;;;;;;7.00;6.23;;;7.60;66.80;;;;;;5084983;28;20231;-68
2023/01/18 05:23:27;;;;;;;7.90;6.65;;;7.60;66.80;;;;;;5093466;28;20523;-68
2023/01/18 05:25:54;;;;;;;10.75;6.95;;;7.60;66.60;;;;;;5094276;28;20259;-68
2023/01/18 05:28:24;;;;;;;8.27;6.80;;;7.60;66.70;;;;;;5092808;28;20208;-68
2023/01/18 05:30:52;;;;;;;8.75;6.75;;;7.60;66.60;;;;;;5094400;28;20248;-69
2023/01/18 05:33:20;;;;;;;8.85;6.60;;;7.60;66.70;;;;;;5082379;28;20280;-69
2023/01/18 05:35:49;;;;;;;8.63;6.50;;;7.80;66.70;;;;;;5073526;28;20284;-68
2023/01/18 05:38:17;;;;;;;7.47;6.07;;;7.50;66.50;;;;;;5072943;28;20205;-69
2023/01/18 05:40:45;;;;;;;9.85;7.45;;;7.50;66.30;;;;;;5073412;28;20266;-69
2023/01/18 05:43:12;;;;;;;7.63;6.43;;;7.50;66.20;;;;;;5073366;28;20201;-69
2023/01/18 05:45:42;;;;;;;8.75;7.28;;;7.40;66.50;;;;;;5089974;28;20619;-69
2023/01/18 05:48:10;;;;;;;8.43;6.65;;;7.40;66.50;;;;;;5093532;28;20197;-68
2023/01/18 05:50:39;;;;;;;11.30;7.43;;;7.30;66.70;;;;;;5093252;28;20242;-69
2023/01/18 05:53:06;;;;;;;7.75;5.97;;;7.30;67.20;;;;;;5093338;28;20205;-69
2023/01/18 05:55:33;;;;;;;8.88;6.60;;;7.20;67.00;;;;;;5090710;28;20211;-68
2023/01/18 05:58:00;;;;;;;10.40;7.80;;;7.20;66.90;;;;;;5091138;28;20623;-69
2023/01/18 06:00:27;;;;;;;12.77;9.30;;;7.20;67.20;;;;;;5092784;28;20265;-69
2023/01/18 06:02:56;;;;;;;11.20;9.13;;;7.20;67.10;;;;;;5093157;28;20227;-69
2023/01/18 06:05:24;;;;;;;10.13;8.30;;;7.10;67.50;;;;;;5091974;28;20255;-69
2023/01/18 06:07:51;;;;;;;9.18;6.95;;;7.00;68.00;;;;;;5091447;28;20251;-69
2023/01/18 06:10:19;;;;;;;8.63;6.45;;;7.00;68.20;;;;;;5074474;28;20293;-68
2023/01/18 06:12:46;;;;;;;8.30;6.55;;;7.00;68.30;;;;;;5072620;28;20217;-68
2023/01/18 06:15:14;;;;;;;7.47;6.22;;;7.00;68.20;;;;;;5072168;28;20591;-69
2023/01/18 06:17:41;;;;;;;6.65;5.75;;;7.20;68.50;;;;;;5072689;28;20209;-69
2023/01/18 06:20:13;;;;;;;7.90;5.55;;;7.20;68.10;;;;;;5075372;28;20228;-68
2023/01/18 06:22:40;;;;;;;7.57;5.70;;;7.20;68.20;;;;;;5091578;28;20230;-68
2023/01/18 06:25:08;;;;;;;7.97;5.53;;;7.20;68.00;;;;;;5072994;28;20202;-69
2023/01/18 06:27:38;;;;;;;6.05;5.43;;;7.30;68.10;;;;;;5071830;28;20240;-69
2023/01/18 06:30:06;;;;;;;7.90;5.68;;;7.30;68.00;;;;;;5073122;28;20205;-69
2023/01/18 06:32:33;;;;;;;7.85;5.15;;;7.40;68.10;;;;;;5104508;28;20260;-69
2023/01/18 06:35:00;;;;;;;7.47;5.20;;;7.30;67.90;;;;;;5095178;28;20208;-69
2023/01/18 06:37:29;;;;;;;7.13;5.63;;;7.40;67.90;;;;;;5091990;28;20201;-69
2023/01/18 06:39:56;;;;;;;7.40;5.45;;;7.40;67.90;;;;;;5092382;28;20204;-68
2023/01/18 06:42:23;;;;;;;6.55;5.68;;;7.40;67.80;;;;;;5086497;28;20249;-69
2023/01/18 06:44:50;;;;;;;7.00;5.22;;;7.40;67.70;;;;;;5072252;28;20201;-68
2023/01/18 06:47:18;;;;;;;7.10;5.03;;;7.40;67.70;;;;;;5070888;28;20229;-69
2023/01/18 06:49:46;;;;;;;6.37;5.20;;;7.40;67.40;;;;;;5072308;28;20201;-69
2023/01/18 06:52:16;;;;;;;8.00;5.25;;;7.40;67.40;;;;;;5071488;28;20447;-68
2023/01/18 06:54:45;;;;;;;7.55;5.60;;;7.30;67.60;;;;;;5072053;28;20223;-70
2023/01/18 06:57:12;;;;;;;7.25;5.85;;;7.40;68.00;;;;;;5071729;28;20292;-69
2023/01/18 06:59:39;;;;;;;7.72;5.53;;;7.40;67.60;;;;;;5036244;28;20604;-70
2023/01/18 07:02:07;;;;;;;10.02;6.25;;;7.40;67.80;;;;;;5071212;28;20213;-69
2023/01/18 07:04:36;;;;;;;7.00;6.20;;;7.20;67.50;;;;;;5070921;28;20201;-69
2023/01/18 07:07:04;;;;;;;10.45;6.40;;;7.00;68.10;;;;;;5080920;28;20230;-70
2023/01/18 07:09:30;;;;;;;6.50;5.03;;;7.00;68.60;;;;;;5090791;28;20291;-69
2023/01/18 07:11:59;;;;;;;9.27;5.35;;;6.80;68.70;;;;;;5092168;28;20549;-70
2023/01/18 07:14:26;;;;;;;7.47;6.28;;;6.80;69.30;;;;;;5091181;28;20246;-69
2023/01/18 07:16:53;;;;;;;7.05;5.70;;;6.80;69.40;;;;;;5083041;28;20193;-72
2023/01/18 07:19:20;;;;;;;6.20;5.03;;;6.90;69.40;;;;;;5071700;28;20257;-72
2023/01/18 07:21:48;;;;;;;6.85;5.40;;;7.00;70.10;;;;;;5073138;28;20201;-72
2023/01/18 07:24:15;;;;;;;7.93;6.25;;;7.00;69.10;;;;;;5071181;28;20244;-72
2023/01/18 07:26:42;;;;;;;8.60;5.87;;;7.10;68.90;;;;;;5071785;28;20224;-72
2023/01/18 07:29:11;;;;;;;8.02;5.70;;;7.10;68.90;;;;;;5072539;28;20927;-72
2023/01/18 07:31:39;;;;;;;9.20;6.30;;;7.10;68.60;;;;;;5073856;28;20275;-72
2023/01/18 07:34:06;;;;;;;8.43;6.47;;;7.10;68.20;;;;;;5071711;28;20209;-73
2023/01/18 07:36:33;;;;;;;8.45;6.07;;;7.00;68.90;;;;;;5071488;28;20239;-72
2023/01/18 07:39:04;;;;;;;9.50;6.30;;;7.10;68.90;;;;;;5081483;28;20589;-72
2023/01/18 07:41:31;;;;;;;7.90;5.45;;;7.10;68.90;;;;;;5086340;28;20196;-72
2023/01/18 07:43:58;;;;;;;7.63;6.80;;;7.10;68.40;;;;;;5073498;28;20224;-72
2023/01/18 07:46:26;;;;;;;7.85;5.93;;;7.10;68.30;;;;;;5080849;28;20224;-72
2023/01/18 07:48:54;;;;;;;8.45;6.00;;;7.00;68.30;;;;;;5095532;28;20660;-72
2023/01/18 07:51:22;;;;;;;8.15;6.00;;;7.00;68.60;;;;;;5094739;28;20257;-72
2023/01/18 07:53:53;;;;;;;7.78;5.57;;;6.90;69.10;;;;;;5095891;28;20258;-72
2023/01/18 07:56:21;;;;;;;14.43;11.35;;;6.90;69.10;;;;;;5094608;28;20702;-72
2023/01/18 07:58:49;;;;;;;12.43;8.52;;;6.70;69.20;;;;;;5077353;28;20467;-73
2023/01/18 08:01:17;;;;;;;13.77;9.52;;;6.70;69.50;;;;;;5076165;28;20255;-73
2023/01/18 08:03:47;;;;;;;10.93;8.40;;;6.70;70.10;;;;;;5075892;28;20205;-72
2023/01/18 08:06:16;;;;;;;10.45;8.10;;;6.70;69.80;;;;;;5092336;28;20280;-72
2023/01/18 08:08:44;;;;;;;14.95;11.20;;;6.70;69.90;;;;;;5080203;28;20201;-73
2023/01/18 08:11:11;;;;;;;9.43;7.47;;;6.50;70.00;;;;;;5080380;28;20216;-72
2023/01/18 08:13:38;;;;;;;11.27;6.80;;;6.60;70.20;;;;;;5074092;28;20205;-73
2023/01/18 08:16:08;;;;;;;7.43;5.75;;;6.60;70.40;;;;;;5075527;28;20235;-73
2023/01/18 08:18:35;;;;;;;6.85;5.05;;;6.80;70.70;;;;;;5075272;28;20205;-73
2023/01/18 08:21:04;;;;;;;12.43;7.28;;;6.70;69.60;;;;;;5075235;28;20229;-73
2023/01/18 08:23:31;;;;;;;7.65;6.68;;;6.70;70.00;;;;;;5074176;28;20324;-73
2023/01/18 08:26:01;;;;;;;10.55;8.02;;;6.80;69.90;;;;;;5074623;28;20267;-73
2023/01/18 08:28:28;;;;;;;15.82;13.40;;;6.70;70.10;;;;;;5077864;28;20546;-72
2023/01/18 08:31:06;;;;;;;17.42;13.00;;;6.70;70.10;;;;;;5080430;28;20288;-73
2023/01/18 08:33:37;;;;;;;29.23;23.20;;;6.70;70.10;;;;;;5101471;28;20197;-73
2023/01/18 08:36:09;;;;;;;11.60;9.98;;;6.60;70.10;;;;;;5076602;28;20217;-73
2023/01/18 08:38:36;;;;;;;11.23;9.38;;;6.50;70.40;;;;;;5093292;28;20240;-73
2023/01/18 08:41:03;;;;;;;12.68;10.55;;;6.70;70.60;;;;;;5094919;28;20295;-73
2023/01/18 08:43:30;;;;;;;9.98;7.50;;;6.50;70.90;;;;;;5075131;28;20212;-73
2023/01/18 08:45:56;;;;;;;8.63;5.88;;;6.60;71.00;;;;;;5074479;28;20701;-74
2023/01/18 08:48:23;;;;;;;12.68;8.15;;;6.70;70.50;;;;;;5074615;28;20299;-74
2023/01/18 08:50:50;;;;;;;10.55;8.18;;;6.60;70.10;;;;;;5085770;28;20612;-75
2023/01/18 08:53:18;;;;;;;9.82;7.93;;;6.60;70.50;;;;;;5076835;28;20669;-74
2023/01/18 08:55:45;;;;;;;14.82;10.65;;;6.60;70.50;;;;;;5073129;28;20201;-75
2023/01/18 08:58:13;;;;;;;18.27;13.77;;;6.60;70.90;;;;;;5074981;28;20567;-73
2023/01/18 09:00:40;;;;;;;8.85;7.32;;;6.60;70.90;;;;;;5074371;28;20211;-73
2023/01/18 09:03:07;;;;;;;7.57;5.80;;;6.60;70.90;;;;;;5088022;28;20287;-75
2023/01/18 09:05:35;;;;;;;6.72;6.00;;;6.70;71.10;;;;;;5094940;28;20295;-76
2023/01/18 09:08:02;;;;;;;7.70;6.10;;;6.70;70.90;;;;;;5094805;28;20235;-74
2023/01/18 09:10:31;;;;;;;9.25;6.95;;;6.80;70.80;;;;;;5094405;28;20591;-74
2023/01/18 09:12:58;;;;;;;9.82;8.50;;;6.70;70.60;;;;;;5094964;28;20257;-74
2023/01/18 09:15:25;;;;;;;10.10;9.00;;;6.70;71.00;;;;;;5094225;28;20291;-74
2023/01/18 09:17:53;;;;;;;13.73;11.23;;;6.60;71.00;;;;;;5094755;28;20238;-72
2023/01/18 09:20:20;;;;;;;11.52;8.85;;;6.70;71.20;;;;;;5094231;28;20233;-73
2023/01/18 09:22:47;;;;;;;9.30;7.35;;;6.60;71.20;;;;;;5076808;28;20312;-73
2023/01/18 09:25:16;;;;;;;9.85;7.78;;;6.60;71.70;;;;;;5094231;28;20193;-75
2023/01/18 09:27:46;;;;;;;12.02;8.23;;;6.60;71.70;;;;;;5077538;28;20228;-74
2023/01/18 09:30:14;;;;;;;9.45;7.47;;;6.60;72.00;;;;;;5094737;28;20208;-73
2023/01/18 09:32:42;;;;;;;11.38;9.35;;;6.50;72.20;;;;;;5094486;28;20209;-73
2023/01/18 09:35:09;;;;;;;10.70;8.90;;;6.50;72.50;;;;;;5094682;28;20208;-75
2023/01/18 09:37:36;;;;;;;15.05;10.45;;;6.50;72.80;;;;;;5091512;28;20247;-73
2023/01/18 09:40:04;;;;;;;10.57;7.93;;;6.50;72.90;;;;;;5073594;28;20209;-73
2023/01/18 09:42:36;;;;;;;8.93;7.78;;;6.60;72.80;;;;;;5073439;28;20539;-73
2023/01/18 09:45:06;;;;;;;10.15;8.32;;;6.60;72.60;;;;;;5056491;28;20285;-73
2023/01/18 09:47:36;;;;;;;12.95;9.25;;;6.60;72.70;;;;;;5073401;28;20228;-74
2023/01/18 09:50:13;;;;;;;10.98;7.50;;;6.50;72.80;;;;;;5062693;28;20228;-74
2023/01/18 09:52:52;;;;;;;9.23;7.32;;;6.70;73.10;;;;;;5093582;28;20246;-74
2023/01/18 09:55:26;;;;;;;8.45;7.10;;;6.80;72.80;;;;;;5093326;28;20601;-74
2023/01/18 09:58:05;;;;;;;14.20;8.77;;;6.90;71.80;;;;;;5093655;28;20196;-73
2023/01/18 10:00:36;;;;;;;9.88;7.28;;;6.90;71.80;;;;;;5093491;28;20273;-73
2023/01/18 10:03:11;;;;;;;9.40;6.68;;;6.80;71.60;;;;;;5078488;28;20638;-74
2023/01/18 10:05:43;;;;;;;8.98;7.57;;;6.70;71.90;;;;;;5072692;28;20224;-76
2023/01/18 10:08:15;;;;;;;10.35;8.38;;;6.80;72.00;;;;;;5073082;28;20209;-74
2023/01/18 10:10:50;;;;;;;9.15;7.65;;;6.80;71.90;;;;;;5072860;28;20181;-74
2023/01/18 10:13:37;;;;;;;11.10;7.30;;;6.90;72.40;;;;;;5056293;28;20200;-74
2023/01/18 10:16:13;;;;;;;9.40;7.10;;;7.00;71.80;;;;;;5073429;28;20197;-74
2023/01/18 10:18:44;;;;;;;9.02;7.25;;;7.00;71.60;;;;;;5055451;28;20200;-73
2023/01/18 10:21:20;;;;;;;11.52;9.60;;;7.00;71.80;;;;;;5056236;28;20228;-76
2023/01/18 10:23:56;;;;;;;13.07;9.57;;;7.00;71.90;;;;;;5048989;28;20339;-76
2023/01/18 10:26:29;;;;;;;9.47;7.40;;;7.10;72.00;;;;;;5065470;28;20202;-73
2023/01/18 10:29:04;;;;;;;9.38;7.93;;;7.20;72.00;;;;;;5093305;28;20521;-73
2023/01/18 10:31:44;;;;;;;10.05;7.80;;;7.20;71.40;;;;;;5092963;28;20219;-73
2023/01/18 10:34:16;;;;;;;11.17;6.43;;;7.40;71.30;;;;;;5093219;28;20193;-73
2023/01/18 10:36:47;;;;;;;8.33;6.97;;;7.40;71.70;;;;;;5092545;28;20522;-73
2023/01/18 10:39:27;;;;;;;8.37;6.80;;;7.40;71.40;;;;;;5093041;28;20443;-74
2023/01/18 10:41:59;;;;;;;8.95;6.38;;;7.60;71.90;;;;;;5093022;28;20979;-76
2023/01/18 10:44:26;;;;;;;7.43;6.43;;;7.70;69.90;;;;;;5092901;28;20184;-77
2023/01/18 10:46:57;;;;;;;6.40;5.80;;;7.80;70.80;;;;;;5093155;28;20577;-73
2023/01/18 10:49:36;;;;;;;8.37;6.30;;;7.90;69.80;;;;;;5056661;28;20915;-74
2023/01/18 10:52:23;;;;;;;8.20;6.03;;;7.80;69.50;;;;;;5092284;28;20454;-73
2023/01/18 10:54:51;;;;;;;9.10;6.03;;;7.80;68.80;;;;;;5093332;28;20465;-74
2023/01/18 10:57:24;;;;;;;8.23;5.30;;;8.00;69.80;;;;;;5093332;28;20461;-73
2023/01/18 10:59:52;;;;;;;7.53;4.97;;;8.20;69.40;;;;;;5093074;28;20450;-76
2023/01/18 11:02:26;;;;;;;5.60;4.17;;;8.30;69.30;;;;;;5070278;28;20481;-75
2023/01/18 11:05:15;;;;;;;8.17;5.00;;;8.50;66.80;;;;;;5072380;28;20938;-73
2023/01/18 11:07:43;;;;;;;5.43;4.93;;;8.50;66.30;;;;;;5071761;28;20566;-75
2023/01/18 11:10:24;;;;;;;5.40;3.70;;;8.50;66.70;;;;;;5072684;28;20483;-75
2023/01/18 11:12:51;;;;;;;4.97;4.37;;;8.30;64.90;;;;;;5074997;28;20776;-75
2023/01/18 11:15:28;;;;;;;4.03;3.10;;;8.20;66.50;;;;;;5084484;28;21021;-73
2023/01/18 11:18:05;;;;;;;4.53;3.40;;;8.30;65.10;;;;;;5091600;28;20442;-75
2023/01/18 11:20:36;;;;;;;4.27;3.20;;;8.60;65.80;;;;;;5091946;28;20794;-73
2023/01/18 11:23:06;;;;;;;4.37;3.40;;;8.50;65.10;;;;;;5091685;28;20490;-74
2023/01/18 11:25:39;;;;;;;5.37;3.50;;;8.60;65.80;;;;;;5092017;28;20454;-76
2023/01/18 11:28:13;;;;;;;3.90;2.87;;;8.70;64.80;;;;;;5072527;28;20570;-73
2023/01/18 11:30:51;;;;;;;3.67;3.33;;;8.70;64.40;;;;;;5071949;28;20522;-75
2023/01/18 11:33:22;;;;;;;4.00;2.90;;;8.50;62.30;;;;;;5072582;28;20438;-76
2023/01/18 11:35:55;;;;;;;5.33;3.10;;;8.50;63.50;;;;;;5072362;28;20484;-76
2023/01/18 11:38:28;;;;;;;3.13;2.80;;;8.50;63.90;;;;;;5078379;28;20442;-75
2023/01/18 11:41:14;;;;;;;4.57;3.23;;;8.60;63.90;;;;;;5074756;28;20431;-75
2023/01/18 11:43:48;;;;;;;3.90;3.10;;;8.70;63.90;;;;;;5091805;28;20438;-75
2023/01/18 11:46:30;;;;;;;5.33;3.63;;;8.60;64.50;;;;;;5092461;28;20517;-75
2023/01/18 11:49:07;;;;;;;4.88;3.08;;;8.60;63.90;;;;;;5092655;28;20431;-74
2023/01/18 11:51:40;;;;;;;4.13;3.20;;;8.70;64.50;;;;;;5091075;28;20235;-75
2023/01/18 11:54:21;;;;;;;4.47;3.33;;;8.80;64.90;;;;;;5092394;28;20544;-76
2023/01/18 11:56:51;;;;;;;4.10;3.53;;;8.90;64.10;;;;;;5091787;28;20435;-74
2023/01/18 11:59:24;;;;;;;5.10;3.27;;;9.00;63.60;;;;;;5092898;28;20486;-75
2023/01/18 12:02:06;;;;;;;2.53;2.30;;;9.10;63.70;;;;;;5092472;28;20829;-74
2023/01/18 12:04:47;;;;;;;4.07;2.60;;;9.20;62.20;;;;;;5070756;28;20450;-75
2023/01/18 12:07:24;;;;;;;3.43;2.70;;;9.40;63.00;;;;;;5072410;28;20901;-73
2023/01/18 12:09:54;;;;;;;3.23;2.47;;;9.50;62.90;;;;;;5072161;28;20518;-73
2023/01/18 12:12:38;;;;;;;3.47;2.10;;;9.50;61.80;;;;;;5071998;28;20455;-73
2023/01/18 12:15:34;;;;;;;3.03;2.20;;;9.30;60.40;;;;;;5079190;28;20487;-73
2023/01/18 12:18:16;;;;;;;3.10;2.37;;;9.20;61.60;;;;;;5062147;28;20448;-73
2023/01/18 12:20:57;;;;;;;3.53;2.20;;;9.20;63.10;;;;;;5070629;28;20495;-74
2023/01/18 12:23:44;;;;;;;2.87;2.40;;;9.30;60.40;;;;;;5071707;28;20497;-76
2023/01/18 12:26:26;;;;;;;2.40;1.80;;;9.20;59.10;;;;;;5071878;28;20522;-75
2023/01/18 12:29:15;;;;;;;3.50;2.10;;;9.10;57.80;;;;;;5053773;28;20471;-75
2023/01/18 12:32:00;;;;;;;3.07;2.03;;;9.10;57.20;;;;;;5074998;28;20518;-74
2023/01/18 12:34:37;;;;;;;2.70;2.10;;;9.10;58.70;;;;;;5073346;28;20530;-73
2023/01/18 12:37:29;;;;;;;2.80;1.93;;;9.20;58.40;;;;;;5074916;28;20432;-76
2023/01/18 12:40:18;;;;;;;5.53;2.10;;;9.00;57.70;;;;;;5075771;28;20459;-74
2023/01/18 12:42:54;;;;;;;2.83;1.87;;;9.20;59.10;;;;;;5056299;28;21024;-74
2023/01/18 12:45:32;;;;;;;3.93;2.00;;;9.30;59.20;;;;;;5074869;28;20429;-73
2023/01/18 12:48:09;;;;;;;2.27;1.80;;;9.50;60.10;;;;;;5056449;28;20475;-73
2023/01/18 12:50:38;;;;;;;2.70;1.77;;;9.70;59.50;;;;;;5074584;28;20481;-74
2023/01/18 12:53:13;;;;;;;4.10;1.67;;;9.80;58.90;;;;;;5074634;28;20545;-75
2023/01/18 12:55:44;;;;;;;2.17;1.53;;;9.90;58.80;;;;;;5073960;28;20531;-74
2023/01/18 12:58:18;;;;;;;2.77;1.77;;;9.90;58.70;;;;;;5074190;28;20482;-74
2023/01/18 13:00:51;;;;;;;2.90;1.70;;;9.90;58.30;;;;;;5021999;28;20504;-68
2023/01/18 13:03:23;;;;;;;1.87;1.60;;;10.00;56.90;;;;;;5082555;28;20535;-73
2023/01/18 13:05:55;;;;;;;2.50;1.70;;;10.00;56.80;;;;;;5093746;28;20435;-75
2023/01/18 13:08:33;;;;;;;1.90;1.73;;;10.00;56.50;;;;;;5076382;28;20477;-79
2023/01/18 13:11:06;;;;;;;2.40;1.87;;;10.10;55.70;;;;;;5059531;28;20584;-73
2023/01/18 13:13:34;;;;;;;2.47;1.67;;;10.10;54.70;;;;;;5094352;28;20537;-77
2023/01/18 13:16:15;;;;;;;2.77;1.83;;;10.10;54.00;;;;;;5063879;28;20443;-78
2023/01/18 13:18:49;;;;;;;2.60;1.73;;;10.00;52.70;;;;;;5073555;28;20431;-75
2023/01/18 13:21:24;;;;;;;2.40;1.70;;;10.10;53.40;;;;;;5074214;28;20515;-70
2023/01/18 13:24:01;;;;;;;2.03;1.70;;;10.00;52.90;;;;;;5072967;28;21000;-71
2023/01/18 13:26:30;;;;;;;5.17;1.87;;;9.80;53.30;;;;;;5073136;28;20931;-70
2023/01/18 13:29:22;;;;;;;3.07;1.90;;;9.60;53.80;;;;;;5094022;28;20475;-71
2023/01/18 13:31:50;;;;;;;2.67;2.13;;;9.50;53.20;;;;;;5103636;28;20448;-70
2023/01/18 13:34:27;;;;;;;1.97;1.77;;;9.50;53.00;;;;;;5114027;28;20451;-70
2023/01/18 13:36:54;;;;;;;2.67;2.00;;;9.60;51.30;;;;;;5114260;28;20562;-70
2023/01/18 13:39:24;;;;;;;2.10;1.87;;;9.90;52.60;;;;;;5103835;28;20529;-71
2023/01/18 13:42:22;;;;;;;3.47;1.80;;;10.50;51.50;;;;;;5092105;28;20529;-71
2023/01/18 13:45:06;;;;;;;4.40;1.77;;;11.10;50.90;;;;;;5093175;28;20517;-72
2023/01/18 13:47:47;;;;;;;2.87;1.63;;;11.40;47.70;;;;;;5092441;28;20886;-70